createdAt,value
2017-12-13T00:02:10.886Z,76.60
2017-12-13T00:04:40.142Z,77.60
2017-12-13T00:07:08.402Z,77.60
2017-12-13T00:09:36.638Z,78.40
2017-12-13T00:12:05.642Z,76.80
2017-12-13T00:14:34.974Z,78.80
2017-12-13T00:17:03.254Z,78.60
2017-12-13T00:19:31.486Z,77.80
2017-12-13T00:22:00.671Z,77.10
2017-12-13T00:24:29.038Z,77.00
2017-12-13T00:26:57.273Z,78.20
2017-12-13T00:29:25.539Z,77.40
2017-12-13T00:31:57.846Z,78.00
2017-12-13T00:34:26.194Z,79.60
2017-12-13T00:36:54.429Z,87.50
2017-12-13T00:39:22.669Z,84.10
2017-12-13T00:41:51.078Z,82.80
2017-12-13T00:44:19.325Z,80.90
2017-12-13T00:46:47.559Z,80.10
2017-12-13T00:49:15.822Z,81.00
2017-12-13T00:51:44.062Z,80.40
2017-12-13T00:54:12.303Z,79.80
2017-12-13T00:56:40.755Z,80.00
2017-12-13T00:59:09.758Z,77.60
2017-12-13T01:01:38.766Z,78.70
2017-12-13T01:04:07.034Z,78.50
2017-12-13T01:06:35.471Z,77.60
2017-12-13T01:09:03.710Z,78.10
2017-12-13T01:11:31.975Z,80.20
2017-12-13T01:14:00.219Z,78.40
2017-12-13T01:16:28.455Z,77.60
2017-12-13T01:18:57.140Z,83.00
2017-12-13T01:21:25.379Z,78.90
2017-12-13T01:23:53.619Z,79.50
2017-12-13T01:26:22.526Z,81.80
2017-12-13T01:28:50.770Z,83.50
2017-12-13T01:31:19.007Z,86.60
2017-12-13T01:33:47.275Z,83.40
2017-12-13T01:36:15.511Z,81.50
2017-12-13T01:38:43.754Z,81.40
2017-12-13T01:41:12.565Z,81.10
2017-12-13T01:43:40.795Z,80.60
2017-12-13T01:46:09.021Z,81.30
2017-12-13T01:48:37.289Z,80.60
2017-12-13T01:51:05.510Z,80.70
2017-12-13T01:53:34.514Z,79.80
2017-12-13T01:56:02.770Z,79.80
2017-12-13T01:58:31.014Z,80.20
2017-12-13T02:00:59.230Z,80.00
2017-12-13T02:03:28.422Z,80.40
2017-12-13T02:05:56.862Z,80.40
2017-12-13T02:08:25.093Z,81.20
2017-12-13T02:10:53.349Z,81.80
2017-12-13T02:13:21.588Z,81.00
2017-12-13T02:15:49.889Z,81.40
2017-12-13T02:18:18.150Z,81.40
2017-12-13T02:20:46.376Z,82.30
2017-12-13T02:23:14.907Z,81.40
2017-12-13T02:25:43.365Z,82.20
2017-12-13T02:28:11.601Z,82.00
2017-12-13T02:30:39.836Z,81.20
2017-12-13T02:33:08.085Z,81.20
2017-12-13T02:35:36.326Z,82.40
2017-12-13T02:38:05.321Z,83.20
2017-12-13T02:40:45.893Z,83.10
2017-12-13T02:43:14.889Z,82.30
2017-12-13T02:45:45.059Z,87.50
2017-12-13T02:48:13.309Z,87.30
2017-12-13T02:50:41.549Z,83.30
2017-12-13T02:53:09.778Z,86.60
2017-12-13T02:55:38.031Z,84.40
2017-12-13T02:58:06.261Z,83.00
2017-12-13T03:00:34.493Z,83.90
2017-12-13T03:03:02.970Z,82.10
2017-12-13T03:05:31.209Z,90.30
2017-12-13T03:07:59.453Z,85.40
2017-12-13T03:10:27.710Z,84.60
2017-12-13T03:12:55.936Z,84.20
2017-12-13T03:15:24.170Z,85.90
2017-12-13T03:17:52.425Z,86.40
2017-12-13T03:20:20.666Z,89.60
2017-12-13T03:22:48.905Z,85.30
2017-12-13T03:25:17.216Z,84.40
2017-12-13T03:27:45.459Z,85.90
2017-12-13T03:30:13.876Z,83.40
2017-12-13T03:32:43.074Z,83.30
2017-12-13T03:35:11.314Z,84.00
2017-12-13T03:37:39.537Z,84.70
2017-12-13T03:40:08.570Z,83.30
2017-12-13T03:42:36.806Z,83.20
2017-12-13T03:45:05.246Z,85.00
2017-12-13T03:47:33.711Z,84.40
2017-12-13T03:50:01.946Z,84.00
2017-12-13T03:52:30.186Z,86.20
2017-12-13T03:54:58.439Z,84.00
2017-12-13T03:57:26.674Z,83.20
2017-12-13T03:59:54.905Z,83.30
2017-12-13T04:02:23.161Z,83.20
2017-12-13T04:04:51.403Z,86.60
2017-12-13T04:07:20.414Z,88.50
2017-12-13T04:09:48.738Z,87.80
2017-12-13T04:12:17.111Z,86.40
2017-12-13T04:14:45.350Z,88.40
2017-12-13T04:17:13.606Z,86.60
2017-12-13T04:19:42.610Z,90.00
2017-12-13T04:22:11.615Z,87.40
2017-12-13T04:24:39.874Z,87.40
2017-12-13T04:27:08.111Z,91.00
2017-12-13T04:29:36.346Z,87.90
2017-12-13T04:32:05.278Z,86.80
2017-12-13T04:34:33.518Z,85.90
2017-12-13T04:37:01.763Z,86.20
2017-12-13T04:39:30.022Z,85.80
2017-12-13T04:41:58.253Z,85.80
2017-12-13T04:44:26.493Z,86.20
2017-12-13T04:46:54.758Z,84.50
2017-12-13T04:49:22.995Z,87.50
2017-12-13T04:51:51.229Z,87.10
2017-12-13T04:54:20.561Z,87.20
2017-12-13T04:56:48.802Z,87.30
2017-12-13T04:59:17.238Z,87.90
2017-12-13T05:01:45.508Z,87.20
2017-12-13T05:04:13.754Z,88.40
2017-12-13T05:06:42.006Z,87.10
2017-12-13T05:09:10.269Z,86.50
2017-12-13T05:11:38.517Z,86.30
2017-12-13T05:14:06.759Z,87.40
2017-12-13T05:16:35.123Z,87.60
2017-12-13T05:19:03.372Z,86.90
2017-12-13T05:21:31.730Z,90.40
2017-12-13T05:23:59.994Z,87.00
2017-12-13T05:26:28.242Z,89.20
2017-12-13T05:28:56.490Z,87.90
2017-12-13T05:31:24.758Z,89.10
2017-12-13T05:33:53.353Z,86.70
2017-12-13T05:36:22.370Z,86.10
2017-12-13T05:38:51.080Z,86.10
2017-12-13T05:41:19.322Z,87.50
2017-12-13T05:43:47.762Z,87.30
2017-12-13T05:46:16.038Z,87.20
2017-12-13T05:48:44.273Z,87.80
2017-12-13T05:51:12.523Z,87.20
2017-12-13T05:53:40.786Z,88.40
2017-12-13T05:56:09.026Z,89.20
2017-12-13T05:58:37.278Z,87.60
2017-12-13T06:01:05.798Z,88.00
2017-12-13T06:03:34.040Z,87.80
2017-12-13T06:06:02.286Z,89.20
2017-12-13T06:08:31.327Z,88.00
2017-12-13T06:10:59.557Z,87.30
2017-12-13T06:13:27.798Z,87.40
2017-12-13T06:15:56.057Z,87.70
2017-12-13T06:18:24.306Z,88.60
2017-12-13T06:20:52.545Z,87.40
2017-12-13T06:23:20.986Z,86.50
2017-12-13T06:25:49.221Z,86.00
2017-12-13T06:28:17.462Z,86.20
2017-12-13T06:30:45.730Z,86.30
2017-12-13T06:33:13.993Z,86.40
2017-12-13T06:35:42.530Z,86.60
2017-12-13T06:38:11.558Z,87.40
2017-12-13T06:40:39.866Z,87.30
2017-12-13T06:43:08.102Z,85.90
2017-12-13T06:45:36.550Z,85.80
2017-12-13T06:48:04.789Z,86.20
2017-12-13T06:50:33.018Z,86.00
2017-12-13T06:53:01.278Z,85.90
2017-12-13T06:55:29.521Z,84.20
2017-12-13T06:57:57.768Z,83.90
2017-12-13T07:00:26.021Z,84.50
2017-12-13T07:02:55.034Z,83.40
2017-12-13T07:05:23.274Z,83.30
2017-12-13T07:07:51.814Z,82.20
2017-12-13T07:10:20.106Z,81.80
2017-12-13T07:12:48.341Z,82.10
2017-12-13T07:15:16.603Z,81.80
2017-12-13T07:17:45.614Z,83.00
2017-12-13T07:20:17.821Z,83.00
2017-12-13T07:22:46.038Z,82.80
2017-12-13T07:25:15.038Z,83.10
2017-12-13T07:27:44.131Z,82.80
2017-12-13T07:30:12.373Z,82.80
2017-12-13T07:32:40.602Z,82.40
2017-12-13T07:35:08.862Z,82.30
2017-12-13T07:37:37.994Z,81.30
2017-12-13T07:40:06.234Z,81.20
2017-12-13T07:42:36.165Z,80.00
2017-12-13T07:45:04.399Z,79.40
2017-12-13T07:47:32.637Z,79.60
2017-12-13T07:50:01.119Z,80.50
2017-12-13T07:52:29.358Z,78.60
2017-12-13T07:54:58.367Z,79.20
2017-12-13T07:57:26.889Z,79.20
2017-12-13T07:59:55.106Z,78.40
2017-12-13T08:02:24.106Z,77.90
2017-12-13T08:04:53.137Z,78.30
2017-12-13T08:07:21.457Z,78.20
2017-12-13T08:09:49.670Z,77.30
2017-12-13T08:12:18.014Z,75.60
2017-12-13T08:14:46.305Z,72.90
2017-12-13T08:17:14.481Z,72.50
2017-12-13T08:19:42.741Z,72.50
2017-12-13T08:22:10.978Z,70.90
2017-12-13T08:24:39.210Z,74.10
2017-12-13T08:27:08.239Z,71.30
2017-12-13T08:29:36.555Z,71.30
2017-12-13T08:32:04.783Z,68.70
2017-12-13T08:34:33.131Z,69.80
2017-12-13T08:37:01.367Z,70.60
2017-12-13T08:39:30.086Z,69.50
2017-12-13T08:41:59.116Z,73.00
2017-12-13T08:44:27.354Z,72.90
2017-12-13T08:46:55.586Z,68.70
2017-12-13T08:49:23.847Z,68.70
2017-12-13T08:51:52.083Z,66.50
2017-12-13T08:54:20.482Z,68.20
2017-12-13T08:56:49.100Z,66.50
2017-12-13T08:59:17.330Z,65.60
2017-12-13T09:01:45.567Z,69.80
2017-12-13T09:04:13.826Z,73.40
2017-12-13T09:06:42.058Z,72.50
2017-12-13T09:09:10.293Z,69.90
2017-12-13T09:11:38.559Z,65.70
2017-12-13T09:14:06.794Z,68.20
2017-12-13T09:16:35.802Z,66.90
2017-12-13T09:19:04.135Z,66.90
2017-12-13T09:21:32.378Z,65.60
2017-12-13T09:24:00.610Z,68.30
2017-12-13T09:26:29.634Z,72.10
2017-12-13T09:28:57.873Z,72.20
2017-12-13T09:31:26.107Z,69.50
2017-12-13T09:33:54.362Z,74.90
2017-12-13T09:36:22.607Z,77.80
2017-12-13T09:38:50.844Z,62.10
2017-12-13T09:41:19.470Z,55.60
2017-12-13T09:43:47.710Z,61.80
2017-12-13T09:46:15.942Z,58.40
2017-12-13T09:48:44.207Z,57.30
2017-12-13T09:51:12.445Z,54.40
2017-12-13T09:53:40.677Z,56.00
2017-12-13T09:56:08.933Z,58.50
2017-12-13T09:58:37.942Z,55.70
2017-12-13T10:01:06.182Z,55.50
2017-12-13T10:03:34.726Z,54.90
2017-12-13T10:06:02.954Z,52.80
2017-12-13T10:08:31.398Z,57.50
2017-12-13T10:10:59.675Z,51.50
2017-12-13T10:13:27.894Z,50.90
2017-12-13T10:15:56.894Z,54.30
2017-12-13T10:18:25.926Z,52.80
2017-12-13T10:20:54.155Z,52.60
2017-12-13T10:23:22.390Z,49.90
2017-12-13T10:25:50.906Z,49.70
2017-12-13T10:28:19.146Z,54.10
2017-12-13T10:30:47.383Z,48.40
2017-12-13T10:33:15.641Z,49.30
2017-12-13T10:35:44.652Z,49.30
2017-12-13T10:38:14.110Z,49.30
2017-12-13T10:40:42.375Z,50.20
2017-12-13T10:43:10.918Z,44.20
2017-12-13T10:45:39.162Z,47.70
2017-12-13T10:48:07.538Z,46.00
2017-12-13T10:50:35.783Z,48.60
2017-12-13T10:53:04.033Z,45.90
2017-12-13T10:55:32.598Z,49.70
2017-12-13T10:58:00.836Z,50.50
2017-12-13T11:00:29.073Z,51.00
2017-12-13T11:02:57.346Z,48.60
2017-12-13T11:05:26.578Z,48.90
2017-12-13T11:07:54.814Z,47.10
2017-12-13T11:10:23.486Z,46.60
2017-12-13T11:12:52.495Z,46.10
2017-12-13T11:15:20.738Z,46.10
2017-12-13T11:17:49.211Z,45.50
2017-12-13T11:20:17.511Z,46.50
2017-12-13T11:22:46.511Z,43.80
2017-12-13T11:25:15.550Z,44.00
2017-12-13T11:27:43.794Z,43.90
2017-12-13T11:30:12.038Z,46.20
2017-12-13T11:32:40.688Z,46.10
2017-12-13T11:35:09.040Z,44.50
2017-12-13T11:37:37.287Z,46.90
2017-12-13T11:40:05.640Z,45.20
2017-12-13T11:42:33.875Z,45.20
2017-12-13T11:45:02.114Z,47.10
2017-12-13T11:47:30.380Z,43.60
2017-12-13T11:49:58.623Z,43.80
2017-12-13T11:52:26.875Z,46.40
2017-12-13T11:55:01.678Z,44.20
2017-12-13T11:57:30.118Z,43.20
2017-12-13T11:59:58.351Z,47.20
2017-12-13T12:02:26.875Z,48.20
2017-12-13T12:04:55.254Z,41.10
2017-12-13T12:07:23.478Z,44.20
2017-12-13T12:09:52.515Z,45.60
2017-12-13T12:12:21.734Z,45.60
2017-12-13T12:14:49.980Z,45.20
2017-12-13T12:17:18.570Z,46.10
2017-12-13T12:19:46.846Z,43.00
2017-12-13T12:22:15.102Z,44.60
2017-12-13T12:24:43.382Z,46.10
2017-12-13T12:27:11.626Z,45.80
2017-12-13T12:29:40.994Z,45.50
2017-12-13T12:32:09.264Z,46.90
2017-12-13T12:34:37.510Z,46.50
2017-12-13T12:37:06.027Z,44.70
2017-12-13T12:39:34.343Z,45.80
2017-12-13T12:42:03.356Z,44.20
2017-12-13T12:44:31.621Z,44.10
2017-12-13T12:47:00.657Z,44.30
2017-12-13T12:49:28.894Z,44.30
2017-12-13T12:51:57.142Z,44.60
2017-12-13T12:54:25.607Z,44.30
2017-12-13T12:56:53.826Z,45.00
2017-12-13T12:59:22.873Z,46.80
2017-12-13T13:01:51.194Z,46.70
2017-12-13T13:04:20.197Z,47.00
2017-12-13T13:06:49.199Z,46.70
2017-12-13T13:09:17.462Z,46.60
2017-12-13T13:11:45.701Z,46.20
2017-12-13T13:14:13.937Z,46.20
2017-12-13T13:16:42.199Z,46.90
2017-12-13T13:19:10.438Z,47.10
2017-12-13T13:21:38.685Z,46.30
2017-12-13T13:24:06.994Z,47.90
2017-12-13T13:26:35.249Z,46.00
2017-12-13T13:29:03.488Z,47.70
2017-12-13T13:31:32.830Z,47.20
2017-12-13T13:34:01.046Z,47.20
2017-12-13T13:36:30.054Z,47.30
2017-12-13T13:38:58.314Z,47.20
2017-12-13T13:41:26.553Z,46.70
2017-12-13T13:43:54.798Z,46.80
2017-12-13T13:46:23.902Z,46.80
2017-12-13T13:48:52.282Z,48.10
2017-12-13T13:51:20.518Z,48.70
2017-12-13T13:53:49.542Z,48.00
2017-12-13T13:56:17.810Z,48.00
2017-12-13T13:58:46.053Z,47.90
2017-12-13T14:01:14.314Z,48.10
2017-12-13T14:03:42.558Z,49.10
2017-12-13T14:06:10.790Z,49.70
2017-12-13T14:08:39.110Z,48.80
2017-12-13T14:11:07.349Z,49.80
2017-12-13T14:13:36.367Z,49.60
2017-12-13T14:16:04.626Z,49.40
2017-12-13T14:18:33.630Z,49.30
2017-12-13T14:21:01.866Z,49.30
2017-12-13T14:23:30.185Z,49.10
2017-12-13T14:25:58.510Z,49.30
2017-12-13T14:28:26.753Z,49.00
2017-12-13T14:30:55.346Z,49.40
2017-12-13T14:33:23.666Z,49.30
2017-12-13T14:35:51.898Z,49.20
2017-12-13T14:38:20.162Z,49.70
2017-12-13T14:40:48.494Z,49.90
2017-12-13T14:43:16.735Z,49.90
2017-12-13T14:45:45.008Z,50.10
2017-12-13T14:48:13.366Z,50.00
2017-12-13T14:50:41.622Z,49.70
2017-12-13T14:53:10.270Z,50.40
2017-12-13T14:55:38.507Z,50.40
2017-12-13T14:58:06.745Z,50.00
2017-12-13T15:00:35.005Z,50.70
2017-12-13T15:03:03.254Z,50.30
2017-12-13T15:05:32.774Z,50.50
2017-12-13T15:08:01.050Z,50.90
2017-12-13T15:10:29.327Z,51.10
2017-12-13T15:12:57.566Z,50.80
2017-12-13T15:15:25.902Z,50.40
2017-12-13T15:17:54.138Z,50.40
2017-12-13T15:20:22.372Z,51.00
2017-12-13T15:22:50.654Z,51.20
2017-12-13T15:25:19.658Z,52.60
2017-12-13T15:27:47.899Z,52.50
2017-12-13T15:30:16.154Z,53.50
2017-12-13T15:32:44.394Z,54.00
2017-12-13T15:35:12.629Z,53.80
2017-12-13T15:37:40.950Z,54.20
2017-12-13T15:40:09.334Z,53.50
2017-12-13T15:42:38.318Z,53.80
2017-12-13T15:45:07.342Z,54.50
2017-12-13T15:47:35.583Z,54.40
2017-12-13T15:50:04.051Z,54.90
2017-12-13T15:52:33.074Z,57.20
2017-12-13T15:55:01.323Z,57.30
2017-12-13T15:57:29.571Z,57.60
2017-12-13T15:59:58.124Z,57.80
2017-12-13T16:02:26.355Z,57.50
2017-12-13T16:04:54.591Z,57.60
2017-12-13T16:07:22.995Z,58.80
2017-12-13T16:09:51.358Z,58.60
2017-12-13T16:12:19.828Z,58.70
2017-12-13T16:14:49.086Z,59.70
2017-12-13T16:17:18.078Z,62.60
2017-12-13T16:19:47.220Z,64.00
2017-12-13T16:22:15.550Z,63.90
2017-12-13T16:24:43.786Z,65.40
2017-12-13T16:27:12.018Z,67.50
2017-12-13T16:29:40.435Z,66.00
2017-12-13T16:32:08.655Z,66.20
2017-12-13T16:34:37.658Z,69.50
2017-12-13T16:37:05.977Z,69.40
2017-12-13T16:39:34.255Z,66.60
2017-12-13T16:42:02.475Z,71.10
2017-12-13T16:44:31.558Z,69.80
2017-12-13T16:46:59.818Z,70.50
2017-12-13T16:49:28.055Z,72.10
2017-12-13T16:51:56.347Z,66.80
2017-12-13T16:54:24.630Z,68.50
2017-12-13T16:56:52.866Z,71.50
2017-12-13T16:59:21.126Z,68.70
2017-12-13T17:01:50.126Z,72.00
2017-12-13T17:04:19.130Z,74.00
2017-12-13T17:06:47.842Z,73.80
2017-12-13T17:09:16.074Z,70.40
2017-12-13T17:11:44.523Z,67.80
2017-12-13T17:14:12.784Z,74.30
2017-12-13T17:16:41.026Z,71.50
2017-12-13T17:19:09.265Z,69.60
2017-12-13T17:21:37.772Z,70.10
2017-12-13T17:24:06.034Z,71.70
2017-12-13T17:26:34.270Z,72.10
2017-12-13T17:29:02.615Z,73.10
2017-12-13T17:31:30.863Z,71.10
2017-12-13T17:33:59.097Z,76.80
2017-12-13T17:36:27.358Z,74.80
2017-12-13T17:38:55.598Z,75.50
2017-12-13T17:41:23.835Z,75.60
2017-12-13T17:43:52.094Z,72.30
2017-12-13T17:46:20.343Z,73.30
2017-12-13T17:48:49.334Z,73.30
2017-12-13T17:51:17.677Z,73.30
2017-12-13T17:53:45.902Z,74.20
2017-12-13T17:56:14.310Z,72.50
2017-12-13T17:58:42.566Z,77.10
2017-12-13T18:01:10.790Z,76.70
2017-12-13T18:03:39.022Z,74.40
2017-12-13T18:06:07.282Z,71.30
2017-12-13T18:08:35.567Z,74.30
2017-12-13T18:11:08.465Z,75.50
2017-12-13T18:13:36.758Z,75.30
2017-12-13T18:16:04.998Z,73.90
2017-12-13T18:18:33.261Z,78.70
2017-12-13T18:21:02.266Z,77.00
2017-12-13T18:23:30.586Z,76.90
2017-12-13T18:25:58.847Z,78.90
2017-12-13T18:28:27.095Z,77.50
2017-12-13T18:30:55.565Z,75.80
2017-12-13T18:33:24.014Z,76.40
2017-12-13T18:35:52.262Z,75.90
2017-12-13T18:38:20.486Z,77.70
2017-12-13T18:40:48.751Z,78.10
2017-12-13T18:43:16.986Z,76.90
2017-12-13T18:45:45.227Z,76.10
2017-12-13T18:48:13.498Z,75.90
2017-12-13T18:50:42.652Z,79.00
2017-12-13T18:53:10.866Z,79.40
2017-12-13T18:55:40.230Z,76.70
2017-12-13T18:58:08.474Z,76.60
2017-12-13T19:00:39.511Z,76.50
2017-12-13T19:03:07.769Z,77.70
2017-12-13T19:05:36.774Z,78.10
2017-12-13T19:08:05.919Z,78.90
2017-12-13T19:10:34.157Z,78.70
2017-12-13T19:13:02.398Z,84.00
2017-12-13T19:15:30.637Z,80.90
2017-12-13T19:17:59.182Z,79.20
2017-12-13T19:20:27.605Z,78.70
2017-12-13T19:22:55.894Z,78.30
2017-12-13T19:25:24.154Z,79.80
2017-12-13T19:27:52.385Z,85.10
2017-12-13T19:30:20.674Z,82.50
2017-12-13T19:32:48.934Z,83.10
2017-12-13T19:35:17.992Z,88.40
2017-12-13T19:37:46.185Z,88.20
2017-12-13T19:40:14.799Z,90.50
2017-12-13T19:42:43.034Z,88.60
2017-12-13T19:45:11.270Z,84.60
2017-12-13T19:47:39.534Z,86.60
2017-12-13T19:50:07.790Z,89.20
2017-12-13T19:52:36.022Z,86.50
2017-12-13T19:55:04.279Z,83.90
2017-12-13T19:57:32.722Z,90.20
2017-12-13T20:00:01.722Z,87.00
2017-12-13T20:02:31.060Z,83.20
2017-12-13T20:04:59.299Z,83.20
2017-12-13T20:07:27.538Z,85.70
2017-12-13T20:09:56.199Z,86.10
2017-12-13T20:12:24.434Z,84.30
2017-12-13T20:14:52.669Z,89.00
2017-12-13T20:17:20.936Z,90.00
2017-12-13T20:19:50.242Z,87.60
2017-12-13T20:22:18.484Z,87.20
2017-12-13T20:24:47.027Z,90.20
2017-12-13T20:27:15.378Z,91.10
2017-12-13T20:29:43.613Z,91.70
2017-12-13T20:32:11.879Z,90.90
2017-12-13T20:34:40.883Z,87.50
2017-12-13T20:37:09.118Z,87.50
2017-12-13T20:39:37.563Z,90.40
2017-12-13T20:42:05.802Z,88.20
2017-12-13T20:44:34.803Z,91.10
2017-12-13T20:47:04.018Z,90.40
2017-12-13T20:49:32.258Z,90.30
2017-12-13T20:52:00.496Z,91.70
2017-12-13T20:54:28.814Z,91.00
2017-12-13T20:56:57.191Z,88.70
2017-12-13T20:59:25.758Z,89.40
2017-12-13T21:01:54.028Z,87.80
2017-12-13T21:04:22.257Z,88.00
2017-12-13T21:06:50.494Z,86.70
2017-12-13T21:09:19.133Z,89.60
2017-12-13T21:11:47.441Z,86.40
2017-12-13T21:14:15.678Z,85.10
2017-12-13T21:16:43.938Z,87.30
2017-12-13T21:19:12.942Z,84.20
2017-12-13T21:21:41.174Z,84.30
2017-12-13T21:24:09.430Z,85.60
2017-12-13T21:26:37.666Z,89.80
2017-12-13T21:29:05.907Z,87.30
2017-12-13T21:31:34.257Z,86.20
2017-12-13T21:34:02.490Z,86.00
2017-12-13T21:36:30.728Z,85.40
2017-12-13T21:38:59.387Z,85.30
2017-12-13T21:41:27.625Z,85.50
2017-12-13T21:43:55.898Z,87.80
2017-12-13T21:46:24.927Z,90.10
2017-12-13T21:48:53.162Z,89.80
2017-12-13T21:51:22.166Z,87.30
2017-12-13T21:53:51.246Z,90.40
2017-12-13T21:56:20.246Z,88.50
2017-12-13T21:58:48.491Z,88.40
2017-12-13T22:01:16.962Z,87.90
2017-12-13T22:03:45.202Z,87.40
2017-12-13T22:06:13.627Z,86.50
2017-12-13T22:08:41.947Z,90.90
2017-12-13T22:11:10.275Z,88.90
2017-12-13T22:13:38.491Z,88.40
2017-12-13T22:16:07.610Z,86.20
2017-12-13T22:18:35.847Z,86.10
2017-12-13T22:21:04.203Z,88.40
2017-12-13T22:23:32.462Z,91.20
2017-12-13T22:26:00.711Z,91.90
2017-12-13T22:28:29.034Z,93.30
2017-12-13T22:30:57.324Z,92.90
2017-12-13T22:33:25.554Z,93.20
2017-12-13T22:35:57.999Z,92.30
2017-12-13T22:38:26.998Z,94.00
2017-12-13T22:40:56.002Z,93.80
2017-12-13T22:43:25.030Z,92.70
2017-12-13T22:45:53.265Z,92.60
2017-12-13T22:48:22.416Z,93.10
2017-12-13T22:50:50.799Z,93.10
2017-12-13T22:53:19.015Z,93.80
2017-12-13T22:55:48.022Z,92.80
2017-12-13T22:58:17.351Z,93.00
2017-12-13T23:00:51.410Z,93.00
2017-12-13T23:03:19.924Z,92.30
2017-12-13T23:05:48.272Z,91.80
2017-12-13T23:08:16.509Z,93.80
2017-12-13T23:10:44.766Z,93.50
2017-12-13T23:13:13.006Z,93.20
2017-12-13T23:15:41.245Z,94.50
2017-12-13T23:18:09.562Z,94.60
2017-12-13T23:20:38.563Z,95.80
2017-12-13T23:23:08.741Z,94.90
2017-12-13T23:25:37.002Z,94.80
2017-12-13T23:28:05.247Z,94.70
2017-12-13T23:30:33.478Z,94.10
2017-12-13T23:33:01.846Z,94.00
2017-12-13T23:35:30.063Z,93.20
2017-12-13T23:37:59.058Z,94.40
2017-12-13T23:40:28.157Z,93.80
2017-12-13T23:42:56.447Z,93.80
2017-12-13T23:45:24.630Z,94.30
2017-12-13T23:47:52.959Z,95.10
2017-12-13T23:50:21.214Z,94.80
2017-12-13T23:52:49.457Z,94.10
2017-12-13T23:55:17.716Z,94.90
2017-12-13T23:57:46.727Z,94.60
